sensor_id;sensor_type;location;lat;lon;timestamp;temperature;humidity
70762;DHT22;58360;0.000;0.000;2023-03-31T00:02:03;12.70;91.10
70762;DHT22;58360;0.000;0.000;2023-03-31T00:04:40;12.80;90.70
70762;DHT22;58360;0.000;0.000;2023-03-31T00:07:14;12.90;90.70
70762;DHT22;58360;0.000;0.000;2023-03-31T00:09:40;13.00;90.40
70762;DHT22;58360;0.000;0.000;2023-03-31T00:12:11;13.20;90.10
70762;DHT22;58360;0.000;0.000;2023-03-31T00:14:38;13.40;89.90
70762;DHT22;58360;0.000;0.000;2023-03-31T00:17:04;13.30;90.20
70762;DHT22;58360;0.000;0.000;2023-03-31T00:19:30;13.30;90.20
70762;DHT22;58360;0.000;0.000;2023-03-31T00:21:58;13.30;90.20
70762;DHT22;58360;0.000;0.000;2023-03-31T00:24:27;13.30;90.30
70762;DHT22;58360;0.000;0.000;2023-03-31T00:27:00;13.40;90.20
70762;DHT22;58360;0.000;0.000;2023-03-31T00:29:26;13.60;89.20
70762;DHT22;58360;0.000;0.000;2023-03-31T00:31:52;13.50;90.00
70762;DHT22;58360;0.000;0.000;2023-03-31T00:34:18;13.70;89.30
70762;DHT22;58360;0.000;0.000;2023-03-31T00:36:43;13.40;90.50
70762;DHT22;58360;0.000;0.000;2023-03-31T00:39:14;13.40;90.40
70762;DHT22;58360;0.000;0.000;2023-03-31T00:41:40;13.40;90.20
70762;DHT22;58360;0.000;0.000;2023-03-31T00:46:43;13.40;90.50
70762;DHT22;58360;0.000;0.000;2023-03-31T00:49:25;13.20;90.90
70762;DHT22;58360;0.000;0.000;2023-03-31T00:51:53;13.40;90.30
70762;DHT22;58360;0.000;0.000;2023-03-31T00:54:20;13.50;90.20
70762;DHT22;58360;0.000;0.000;2023-03-31T00:56:48;13.40;90.70
70762;DHT22;58360;0.000;0.000;2023-03-31T00:59:17;13.10;91.60
70762;DHT22;58360;0.000;0.000;2023-03-31T01:01:45;13.00;92.10
70762;DHT22;58360;0.000;0.000;2023-03-31T01:04:13;13.10;91.80
70762;DHT22;58360;0.000;0.000;2023-03-31T01:06:50;13.10;91.10
70762;DHT22;58360;0.000;0.000;2023-03-31T01:09:22;13.10;91.30
70762;DHT22;58360;0.000;0.000;2023-03-31T01:11:49;13.10;91.50
70762;DHT22;58360;0.000;0.000;2023-03-31T01:14:15;13.10;90.70
70762;DHT22;58360;0.000;0.000;2023-03-31T01:16:41;13.00;90.60
70762;DHT22;58360;0.000;0.000;2023-03-31T01:19:12;12.90;90.90
70762;DHT22;58360;0.000;0.000;2023-03-31T01:22:13;12.90;90.90
70762;DHT22;58360;0.000;0.000;2023-03-31T01:25:36;12.80;91.20
70762;DHT22;58360;0.000;0.000;2023-03-31T01:39:28;12.80;92.10
70762;DHT22;58360;0.000;0.000;2023-03-31T01:41:41;12.80;92.40
70762;DHT22;58360;0.000;0.000;2023-03-31T01:46:57;12.40;93.30
70762;DHT22;58360;0.000;0.000;2023-03-31T01:55:36;12.30;93.40
70762;DHT22;58360;0.000;0.000;2023-03-31T01:58:15;12.20;93.70
70762;DHT22;58360;0.000;0.000;2023-03-31T02:00:51;12.00;93.90
70762;DHT22;58360;0.000;0.000;2023-03-31T02:03:24;12.00;94.10
70762;DHT22;58360;0.000;0.000;2023-03-31T02:05:54;12.00;94.10
70762;DHT22;58360;0.000;0.000;2023-03-31T02:08:25;11.90;94.10
70762;DHT22;58360;0.000;0.000;2023-03-31T02:10:54;12.00;94.30
70762;DHT22;58360;0.000;0.000;2023-03-31T02:13:22;12.10;93.80
70762;DHT22;58360;0.000;0.000;2023-03-31T02:15:53;12.00;93.80
70762;DHT22;58360;0.000;0.000;2023-03-31T02:18:25;12.00;93.90
70762;DHT22;58360;0.000;0.000;2023-03-31T02:20:53;12.00;93.90
70762;DHT22;58360;0.000;0.000;2023-03-31T02:23:24;12.00;94.10
70762;DHT22;58360;0.000;0.000;2023-03-31T02:26:15;11.90;93.90
70762;DHT22;58360;0.000;0.000;2023-03-31T02:28:43;11.90;94.00
70762;DHT22;58360;0.000;0.000;2023-03-31T02:34:00;11.80;94.00
70762;DHT22;58360;0.000;0.000;2023-03-31T02:36:27;11.90;93.90
70762;DHT22;58360;0.000;0.000;2023-03-31T02:39:07;11.80;93.80
70762;DHT22;58360;0.000;0.000;2023-03-31T02:41:34;12.00;93.50
70762;DHT22;58360;0.000;0.000;2023-03-31T02:44:00;12.00;93.50
70762;DHT22;58360;0.000;0.000;2023-03-31T02:46:26;12.00;93.40
70762;DHT22;58360;0.000;0.000;2023-03-31T02:48:55;12.00;93.40
70762;DHT22;58360;0.000;0.000;2023-03-31T03:00:15;11.70;94.40
70762;DHT22;58360;0.000;0.000;2023-03-31T03:11:45;11.90;94.40
70762;DHT22;58360;0.000;0.000;2023-03-31T03:14:21;11.80;94.80
70762;DHT22;58360;0.000;0.000;2023-03-31T03:19:28;11.60;95.10
70762;DHT22;58360;0.000;0.000;2023-03-31T03:21:57;11.60;95.50
70762;DHT22;58360;0.000;0.000;2023-03-31T03:24:25;11.60;95.80
70762;DHT22;58360;0.000;0.000;2023-03-31T03:26:54;11.60;95.60
70762;DHT22;58360;0.000;0.000;2023-03-31T03:29:20;11.50;95.60
70762;DHT22;58360;0.000;0.000;2023-03-31T03:31:46;11.60;95.80
70762;DHT22;58360;0.000;0.000;2023-03-31T03:34:12;11.60;95.30
70762;DHT22;58360;0.000;0.000;2023-03-31T03:36:38;11.70;95.20
70762;DHT22;58360;0.000;0.000;2023-03-31T03:39:06;11.70;95.40
70762;DHT22;58360;0.000;0.000;2023-03-31T03:41:32;11.80;94.80
70762;DHT22;58360;0.000;0.000;2023-03-31T03:43:59;11.60;94.80
70762;DHT22;58360;0.000;0.000;2023-03-31T03:46:25;11.40;95.50
70762;DHT22;58360;0.000;0.000;2023-03-31T03:48:51;11.30;96.00
70762;DHT22;58360;0.000;0.000;2023-03-31T03:51:16;11.40;95.60
70762;DHT22;58360;0.000;0.000;2023-03-31T03:53:42;11.60;95.00
70762;DHT22;58360;0.000;0.000;2023-03-31T03:56:08;11.50;95.60
70762;DHT22;58360;0.000;0.000;2023-03-31T03:58:34;11.50;95.90
70762;DHT22;58360;0.000;0.000;2023-03-31T04:00:59;11.50;95.90
70762;DHT22;58360;0.000;0.000;2023-03-31T04:03:25;11.60;95.60
70762;DHT22;58360;0.000;0.000;2023-03-31T04:05:51;11.70;95.00
70762;DHT22;58360;0.000;0.000;2023-03-31T04:08:17;11.50;95.20
70762;DHT22;58360;0.000;0.000;2023-03-31T04:10:47;11.40;95.50
70762;DHT22;58360;0.000;0.000;2023-03-31T04:13:22;11.40;95.60
70762;DHT22;58360;0.000;0.000;2023-03-31T04:15:48;11.50;95.60
70762;DHT22;58360;0.000;0.000;2023-03-31T04:18:14;11.50;95.10
70762;DHT22;58360;0.000;0.000;2023-03-31T04:20:53;11.60;95.10
70762;DHT22;58360;0.000;0.000;2023-03-31T04:23:29;11.90;94.50
70762;DHT22;58360;0.000;0.000;2023-03-31T04:25:55;11.70;94.60
70762;DHT22;58360;0.000;0.000;2023-03-31T04:28:21;11.60;95.10
70762;DHT22;58360;0.000;0.000;2023-03-31T04:30:47;11.50;95.10
70762;DHT22;58360;0.000;0.000;2023-03-31T04:33:13;11.40;95.10
70762;DHT22;58360;0.000;0.000;2023-03-31T04:35:40;11.30;95.80
70762;DHT22;58360;0.000;0.000;2023-03-31T04:38:21;11.20;95.90
70762;DHT22;58360;0.000;0.000;2023-03-31T04:40:51;11.10;95.80
70762;DHT22;58360;0.000;0.000;2023-03-31T04:43:19;11.10;95.80
70762;DHT22;58360;0.000;0.000;2023-03-31T04:45:45;11.10;95.80
70762;DHT22;58360;0.000;0.000;2023-03-31T04:48:11;11.20;95.90
70762;DHT22;58360;0.000;0.000;2023-03-31T04:50:37;11.20;95.40
70762;DHT22;58360;0.000;0.000;2023-03-31T04:53:04;11.20;95.20
70762;DHT22;58360;0.000;0.000;2023-03-31T04:55:29;11.20;95.40
70762;DHT22;58360;0.000;0.000;2023-03-31T04:57:55;11.30;95.20
70762;DHT22;58360;0.000;0.000;2023-03-31T05:00:22;11.20;94.80
70762;DHT22;58360;0.000;0.000;2023-03-31T05:02:48;11.30;95.10
70762;DHT22;58360;0.000;0.000;2023-03-31T05:05:14;11.40;94.30
70762;DHT22;58360;0.000;0.000;2023-03-31T05:07:40;11.40;94.50
70762;DHT22;58360;0.000;0.000;2023-03-31T05:10:06;11.20;94.80
70762;DHT22;58360;0.000;0.000;2023-03-31T05:12:38;11.10;94.60
70762;DHT22;58360;0.000;0.000;2023-03-31T05:15:05;11.20;94.70
70762;DHT22;58360;0.000;0.000;2023-03-31T05:17:32;11.10;94.60
70762;DHT22;58360;0.000;0.000;2023-03-31T05:19:58;10.90;94.80
70762;DHT22;58360;0.000;0.000;2023-03-31T05:22:25;11.00;95.20
70762;DHT22;58360;0.000;0.000;2023-03-31T05:24:50;10.90;95.20
70762;DHT22;58360;0.000;0.000;2023-03-31T05:27:16;10.80;95.40
70762;DHT22;58360;0.000;0.000;2023-03-31T05:29:42;10.80;95.60
70762;DHT22;58360;0.000;0.000;2023-03-31T05:32:08;10.70;95.90
70762;DHT22;58360;0.000;0.000;2023-03-31T05:34:34;10.80;95.80
70762;DHT22;58360;0.000;0.000;2023-03-31T05:37:00;10.80;95.90
70762;DHT22;58360;0.000;0.000;2023-03-31T05:39:26;10.90;95.90
70762;DHT22;58360;0.000;0.000;2023-03-31T05:41:57;11.00;95.60
70762;DHT22;58360;0.000;0.000;2023-03-31T05:44:23;11.10;95.70
70762;DHT22;58360;0.000;0.000;2023-03-31T05:46:49;11.10;95.80
70762;DHT22;58360;0.000;0.000;2023-03-31T05:49:14;11.10;95.60
70762;DHT22;58360;0.000;0.000;2023-03-31T05:51:41;11.10;95.80
70762;DHT22;58360;0.000;0.000;2023-03-31T05:54:07;11.20;95.50
70762;DHT22;58360;0.000;0.000;2023-03-31T05:56:33;11.20;95.50
70762;DHT22;58360;0.000;0.000;2023-03-31T05:58:59;11.30;95.60
70762;DHT22;58360;0.000;0.000;2023-03-31T06:01:26;11.50;95.00
70762;DHT22;58360;0.000;0.000;2023-03-31T06:03:52;11.70;94.70
70762;DHT22;58360;0.000;0.000;2023-03-31T06:06:18;11.60;94.80
70762;DHT22;58360;0.000;0.000;2023-03-31T06:08:45;11.70;94.70
70762;DHT22;58360;0.000;0.000;2023-03-31T06:11:14;11.90;94.40
70762;DHT22;58360;0.000;0.000;2023-03-31T06:13:41;11.80;94.50
70762;DHT22;58360;0.000;0.000;2023-03-31T06:16:09;11.70;94.70
70762;DHT22;58360;0.000;0.000;2023-03-31T06:18:35;11.80;94.70
70762;DHT22;58360;0.000;0.000;2023-03-31T06:21:02;11.90;94.40
70762;DHT22;58360;0.000;0.000;2023-03-31T06:23:28;12.00;94.20
70762;DHT22;58360;0.000;0.000;2023-03-31T06:25:53;12.00;93.90
70762;DHT22;58360;0.000;0.000;2023-03-31T06:28:23;12.00;93.80
70762;DHT22;58360;0.000;0.000;2023-03-31T06:30:49;12.10;93.80
70762;DHT22;58360;0.000;0.000;2023-03-31T06:33:14;12.30;93.40
70762;DHT22;58360;0.000;0.000;2023-03-31T06:35:40;12.40;92.80
70762;DHT22;58360;0.000;0.000;2023-03-31T06:38:06;12.50;92.70
70762;DHT22;58360;0.000;0.000;2023-03-31T06:40:32;12.60;92.30
70762;DHT22;58360;0.000;0.000;2023-03-31T06:42:58;12.70;92.00
70762;DHT22;58360;0.000;0.000;2023-03-31T06:45:24;12.60;92.20
70762;DHT22;58360;0.000;0.000;2023-03-31T06:47:50;12.70;92.00
70762;DHT22;58360;0.000;0.000;2023-03-31T06:50:16;12.60;92.30
70762;DHT22;58360;0.000;0.000;2023-03-31T06:52:41;12.50;92.60
70762;DHT22;58360;0.000;0.000;2023-03-31T06:55:07;12.30;93.30
70762;DHT22;58360;0.000;0.000;2023-03-31T06:57:33;12.30;93.70
70762;DHT22;58360;0.000;0.000;2023-03-31T06:59:59;12.40;93.00
70762;DHT22;58360;0.000;0.000;2023-03-31T07:02:25;12.50;92.70
70762;DHT22;58360;0.000;0.000;2023-03-31T07:04:51;12.60;92.20
70762;DHT22;58360;0.000;0.000;2023-03-31T07:07:16;12.70;92.20
70762;DHT22;58360;0.000;0.000;2023-03-31T07:09:42;12.60;92.50
70762;DHT22;58360;0.000;0.000;2023-03-31T07:12:08;12.70;92.20
70762;DHT22;58360;0.000;0.000;2023-03-31T07:14:35;12.80;91.90
70762;DHT22;58360;0.000;0.000;2023-03-31T07:17:01;13.00;91.30
70762;DHT22;58360;0.000;0.000;2023-03-31T07:19:27;12.90;91.90
70762;DHT22;58360;0.000;0.000;2023-03-31T07:21:52;13.10;91.50
70762;DHT22;58360;0.000;0.000;2023-03-31T07:24:18;13.10;91.00
70762;DHT22;58360;0.000;0.000;2023-03-31T07:26:44;13.20;91.20
70762;DHT22;58360;0.000;0.000;2023-03-31T07:29:10;13.30;90.90
70762;DHT22;58360;0.000;0.000;2023-03-31T07:31:35;13.30;90.30
70762;DHT22;58360;0.000;0.000;2023-03-31T07:34:02;13.40;90.20
70762;DHT22;58360;0.000;0.000;2023-03-31T07:36:29;13.30;90.30
70762;DHT22;58360;0.000;0.000;2023-03-31T07:38:55;13.20;90.50
70762;DHT22;58360;0.000;0.000;2023-03-31T07:41:21;13.30;90.50
70762;DHT22;58360;0.000;0.000;2023-03-31T07:43:48;13.30;90.30
70762;DHT22;58360;0.000;0.000;2023-03-31T07:46:25;13.30;88.90
70762;DHT22;58360;0.000;0.000;2023-03-31T07:48:52;13.20;90.00
70762;DHT22;58360;0.000;0.000;2023-03-31T07:51:20;13.20;90.20
70762;DHT22;58360;0.000;0.000;2023-03-31T07:53:46;13.10;90.20
70762;DHT22;58360;0.000;0.000;2023-03-31T07:56:14;13.10;90.10
70762;DHT22;58360;0.000;0.000;2023-03-31T07:58:42;13.10;90.60
70762;DHT22;58360;0.000;0.000;2023-03-31T08:01:07;13.10;91.10
70762;DHT22;58360;0.000;0.000;2023-03-31T08:03:34;13.20;90.50
70762;DHT22;58360;0.000;0.000;2023-03-31T08:06:00;13.30;90.10
70762;DHT22;58360;0.000;0.000;2023-03-31T08:08:26;13.30;89.70
70762;DHT22;58360;0.000;0.000;2023-03-31T08:10:51;13.20;88.90
70762;DHT22;58360;0.000;0.000;2023-03-31T08:13:17;13.20;88.00
70762;DHT22;58360;0.000;0.000;2023-03-31T08:15:43;13.10;89.40
70762;DHT22;58360;0.000;0.000;2023-03-31T08:18:09;13.20;89.40
70762;DHT22;58360;0.000;0.000;2023-03-31T08:20:35;13.20;90.10
70762;DHT22;58360;0.000;0.000;2023-03-31T08:23:01;13.30;90.50
70762;DHT22;58360;0.000;0.000;2023-03-31T08:25:26;13.50;90.20
70762;DHT22;58360;0.000;0.000;2023-03-31T08:27:52;13.80;87.90
70762;DHT22;58360;0.000;0.000;2023-03-31T08:30:18;13.80;88.50
70762;DHT22;58360;0.000;0.000;2023-03-31T08:32:45;14.00;87.10
70762;DHT22;58360;0.000;0.000;2023-03-31T08:35:10;14.00;87.10
70762;DHT22;58360;0.000;0.000;2023-03-31T08:37:37;14.00;87.70
70762;DHT22;58360;0.000;0.000;2023-03-31T08:40:04;14.10;86.90
70762;DHT22;58360;0.000;0.000;2023-03-31T08:42:46;14.10;86.40
70762;DHT22;58360;0.000;0.000;2023-03-31T08:47:49;14.00;86.30
70762;DHT22;58360;0.000;0.000;2023-03-31T08:50:20;14.00;86.80
70762;DHT22;58360;0.000;0.000;2023-03-31T08:52:51;14.10;86.00
70762;DHT22;58360;0.000;0.000;2023-03-31T08:55:24;14.20;84.30
70762;DHT22;58360;0.000;0.000;2023-03-31T08:58:01;14.30;83.70
70762;DHT22;58360;0.000;0.000;2023-03-31T09:00:45;14.50;83.20
70762;DHT22;58360;0.000;0.000;2023-03-31T09:03:33;14.70;81.60
70762;DHT22;58360;0.000;0.000;2023-03-31T09:06:09;14.70;82.00
70762;DHT22;58360;0.000;0.000;2023-03-31T09:08:38;14.80;81.70
70762;DHT22;58360;0.000;0.000;2023-03-31T09:17:26;15.00;82.00
70762;DHT22;58360;0.000;0.000;2023-03-31T09:20:00;15.00;81.50
70762;DHT22;58360;0.000;0.000;2023-03-31T09:22:37;14.80;81.20
70762;DHT22;58360;0.000;0.000;2023-03-31T09:27:33;15.20;82.50
70762;DHT22;58360;0.000;0.000;2023-03-31T09:30:15;15.30;81.00
70762;DHT22;58360;0.000;0.000;2023-03-31T09:32:43;15.40;79.10
70762;DHT22;58360;0.000;0.000;2023-03-31T09:35:17;15.40;78.80
70762;DHT22;58360;0.000;0.000;2023-03-31T09:37:43;15.40;78.90
70762;DHT22;58360;0.000;0.000;2023-03-31T09:40:17;15.30;79.60
70762;DHT22;58360;0.000;0.000;2023-03-31T09:42:46;15.30;78.60
70762;DHT22;58360;0.000;0.000;2023-03-31T09:45:17;15.30;79.00
70762;DHT22;58360;0.000;0.000;2023-03-31T09:47:50;15.00;80.40
70762;DHT22;58360;0.000;0.000;2023-03-31T09:50:17;14.90;80.70
70762;DHT22;58360;0.000;0.000;2023-03-31T09:52:50;14.80;82.10
70762;DHT22;58360;0.000;0.000;2023-03-31T09:57:51;14.70;81.70
70762;DHT22;58360;0.000;0.000;2023-03-31T10:00:20;14.80;82.30
70762;DHT22;58360;0.000;0.000;2023-03-31T10:02:56;14.80;82.70
70762;DHT22;58360;0.000;0.000;2023-03-31T10:05:35;14.90;80.00
70762;DHT22;58360;0.000;0.000;2023-03-31T10:10:43;14.90;83.80
70762;DHT22;58360;0.000;0.000;2023-03-31T10:13:13;14.80;83.60
70762;DHT22;58360;0.000;0.000;2023-03-31T10:15:40;15.00;83.00
70762;DHT22;58360;0.000;0.000;2023-03-31T10:18:15;14.90;83.10
70762;DHT22;58360;0.000;0.000;2023-03-31T10:20:50;14.80;84.40
70762;DHT22;58360;0.000;0.000;2023-03-31T10:23:23;14.60;83.40
70762;DHT22;58360;0.000;0.000;2023-03-31T10:25:51;14.60;84.00
70762;DHT22;58360;0.000;0.000;2023-03-31T10:28:19;14.40;83.90
70762;DHT22;58360;0.000;0.000;2023-03-31T10:30:48;14.30;84.80
70762;DHT22;58360;0.000;0.000;2023-03-31T10:33:22;14.40;85.00
70762;DHT22;58360;0.000;0.000;2023-03-31T10:35:56;14.50;83.80
70762;DHT22;58360;0.000;0.000;2023-03-31T10:38:30;14.40;83.90
70762;DHT22;58360;0.000;0.000;2023-03-31T10:40:59;14.50;82.70
70762;DHT22;58360;0.000;0.000;2023-03-31T10:43:39;14.50;82.90
70762;DHT22;58360;0.000;0.000;2023-03-31T10:46:06;14.60;82.20
70762;DHT22;58360;0.000;0.000;2023-03-31T10:48:34;14.60;82.60
70762;DHT22;58360;0.000;0.000;2023-03-31T10:51:25;14.90;81.00
70762;DHT22;58360;0.000;0.000;2023-03-31T10:54:00;15.10;80.30
70762;DHT22;58360;0.000;0.000;2023-03-31T11:04:51;15.20;80.50
70762;DHT22;58360;0.000;0.000;2023-03-31T11:08:02;15.30;79.90
70762;DHT22;58360;0.000;0.000;2023-03-31T11:10:47;15.40;79.70
70762;DHT22;58360;0.000;0.000;2023-03-31T11:30:06;14.90;79.40
70762;DHT22;58360;0.000;0.000;2023-03-31T11:32:45;14.90;80.00
70762;DHT22;58360;0.000;0.000;2023-03-31T11:41:26;15.30;78.20
70762;DHT22;58360;0.000;0.000;2023-03-31T11:44:03;15.30;77.50
70762;DHT22;58360;0.000;0.000;2023-03-31T11:46:38;15.20;77.50
70762;DHT22;58360;0.000;0.000;2023-03-31T11:52:00;15.00;79.40
70762;DHT22;58360;0.000;0.000;2023-03-31T11:57:19;15.40;77.20
70762;DHT22;58360;0.000;0.000;2023-03-31T11:59:53;15.40;76.70
70762;DHT22;58360;0.000;0.000;2023-03-31T12:02:45;15.50;75.90
70762;DHT22;58360;0.000;0.000;2023-03-31T12:05:13;15.40;75.90
70762;DHT22;58360;0.000;0.000;2023-03-31T12:10:21;15.30;78.00
70762;DHT22;58360;0.000;0.000;2023-03-31T12:13:02;15.00;79.20
70762;DHT22;58360;0.000;0.000;2023-03-31T12:15:39;14.40;82.20
70762;DHT22;58360;0.000;0.000;2023-03-31T12:18:17;14.10;84.80
70762;DHT22;58360;0.000;0.000;2023-03-31T12:20:51;13.80;86.10
70762;DHT22;58360;0.000;0.000;2023-03-31T12:23:21;13.50;88.30
70762;DHT22;58360;0.000;0.000;2023-03-31T12:26:02;13.50;88.80
70762;DHT22;58360;0.000;0.000;2023-03-31T12:28:33;13.30;87.70
70762;DHT22;58360;0.000;0.000;2023-03-31T12:31:04;13.30;87.30
70762;DHT22;58360;0.000;0.000;2023-03-31T12:33:41;13.60;87.30
70762;DHT22;58360;0.000;0.000;2023-03-31T12:44:51;13.30;88.90
70762;DHT22;58360;0.000;0.000;2023-03-31T12:50:26;13.10;90.20
70762;DHT22;58360;0.000;0.000;2023-03-31T12:55:49;13.20;89.80
70762;DHT22;58360;0.000;0.000;2023-03-31T13:03:48;12.80;90.90
70762;DHT22;58360;0.000;0.000;2023-03-31T13:14:22;12.90;91.10
70762;DHT22;58360;0.000;0.000;2023-03-31T13:16:49;13.10;90.90
70762;DHT22;58360;0.000;0.000;2023-03-31T13:19:33;13.10;90.10
70762;DHT22;58360;0.000;0.000;2023-03-31T13:22:01;12.90;90.10
70762;DHT22;58360;0.000;0.000;2023-03-31T13:24:29;12.90;89.50
70762;DHT22;58360;0.000;0.000;2023-03-31T13:26:56;12.90;90.10
70762;DHT22;58360;0.000;0.000;2023-03-31T13:29:39;13.00;88.20
70762;DHT22;58360;0.000;0.000;2023-03-31T13:32:23;13.10;86.30
70762;DHT22;58360;0.000;0.000;2023-03-31T13:51:30;13.30;84.30
70762;DHT22;58360;0.000;0.000;2023-03-31T13:54:09;13.40;83.60
70762;DHT22;58360;0.000;0.000;2023-03-31T14:05:11;13.30;81.50
70762;DHT22;58360;0.000;0.000;2023-03-31T14:07:54;13.20;82.30
70762;DHT22;58360;0.000;0.000;2023-03-31T14:10:30;13.20;81.00
70762;DHT22;58360;0.000;0.000;2023-03-31T14:13:14;13.20;80.60
70762;DHT22;58360;0.000;0.000;2023-03-31T14:15:50;13.10;80.60
70762;DHT22;58360;0.000;0.000;2023-03-31T14:18:27;13.10;81.70
70762;DHT22;58360;0.000;0.000;2023-03-31T14:29:41;13.10;81.30
70762;DHT22;58360;0.000;0.000;2023-03-31T14:32:31;13.10;82.50
70762;DHT22;58360;0.000;0.000;2023-03-31T14:37:33;13.20;83.50
70762;DHT22;58360;0.000;0.000;2023-03-31T14:40:00;13.20;82.20
70762;DHT22;58360;0.000;0.000;2023-03-31T14:42:37;13.10;82.40
70762;DHT22;58360;0.000;0.000;2023-03-31T14:45:14;13.10;84.30
70762;DHT22;58360;0.000;0.000;2023-03-31T14:47:40;13.10;83.50
70762;DHT22;58360;0.000;0.000;2023-03-31T14:50:16;13.00;82.80
70762;DHT22;58360;0.000;0.000;2023-03-31T14:52:50;13.00;83.10
70762;DHT22;58360;0.000;0.000;2023-03-31T14:55:25;13.00;83.40
70762;DHT22;58360;0.000;0.000;2023-03-31T14:57:54;13.00;84.20
70762;DHT22;58360;0.000;0.000;2023-03-31T15:00:27;12.90;85.10
70762;DHT22;58360;0.000;0.000;2023-03-31T15:02:54;13.10;84.80
70762;DHT22;58360;0.000;0.000;2023-03-31T15:05:30;13.10;84.20
70762;DHT22;58360;0.000;0.000;2023-03-31T15:07:58;13.10;84.20
70762;DHT22;58360;0.000;0.000;2023-03-31T15:10:32;13.00;85.00
70762;DHT22;58360;0.000;0.000;2023-03-31T15:13:05;13.00;85.50
70762;DHT22;58360;0.000;0.000;2023-03-31T15:15:32;13.00;85.40
70762;DHT22;58360;0.000;0.000;2023-03-31T15:17:58;12.80;86.20
70762;DHT22;58360;0.000;0.000;2023-03-31T15:20:25;12.80;87.40
70762;DHT22;58360;0.000;0.000;2023-03-31T15:22:56;12.80;87.70
70762;DHT22;58360;0.000;0.000;2023-03-31T15:25:31;12.80;87.90
70762;DHT22;58360;0.000;0.000;2023-03-31T15:28:05;12.80;87.50
70762;DHT22;58360;0.000;0.000;2023-03-31T15:30:31;12.60;88.50
70762;DHT22;58360;0.000;0.000;2023-03-31T15:32:58;12.60;89.30
70762;DHT22;58360;0.000;0.000;2023-03-31T15:35:32;12.60;88.40
70762;DHT22;58360;0.000;0.000;2023-03-31T15:38:01;12.50;88.60
70762;DHT22;58360;0.000;0.000;2023-03-31T15:40:30;12.50;88.80
70762;DHT22;58360;0.000;0.000;2023-03-31T15:45:43;12.40;89.40
70762;DHT22;58360;0.000;0.000;2023-03-31T15:50:59;12.50;88.00
70762;DHT22;58360;0.000;0.000;2023-03-31T15:53:33;12.50;88.10
70762;DHT22;58360;0.000;0.000;2023-03-31T15:56:00;12.50;88.70
70762;DHT22;58360;0.000;0.000;2023-03-31T15:59:27;12.50;88.00
70762;DHT22;58360;0.000;0.000;2023-03-31T16:01:43;12.40;89.40
70762;DHT22;58360;0.000;0.000;2023-03-31T16:04:11;12.30;90.60
70762;DHT22;58360;0.000;0.000;2023-03-31T16:09:45;12.20;90.60
70762;DHT22;58360;0.000;0.000;2023-03-31T16:12:22;12.10;90.60
70762;DHT22;58360;0.000;0.000;2023-03-31T16:17:28;12.10;90.50
70762;DHT22;58360;0.000;0.000;2023-03-31T16:20:06;12.10;90.00
70762;DHT22;58360;0.000;0.000;2023-03-31T16:22:39;12.00;90.50
70762;DHT22;58360;0.000;0.000;2023-03-31T16:25:18;12.10;90.10
70762;DHT22;58360;0.000;0.000;2023-03-31T16:27:47;12.20;90.00
70762;DHT22;58360;0.000;0.000;2023-03-31T16:30:17;12.20;89.20
70762;DHT22;58360;0.000;0.000;2023-03-31T16:35:29;12.10;90.40
70762;DHT22;58360;0.000;0.000;2023-03-31T16:37:56;12.20;90.40
70762;DHT22;58360;0.000;0.000;2023-03-31T16:40:21;12.10;90.60
70762;DHT22;58360;0.000;0.000;2023-03-31T16:42:47;12.20;90.90
70762;DHT22;58360;0.000;0.000;2023-03-31T16:45:13;12.20;90.60
70762;DHT22;58360;0.000;0.000;2023-03-31T16:47:38;12.00;91.20
70762;DHT22;58360;0.000;0.000;2023-03-31T16:50:05;12.00;91.90
70762;DHT22;58360;0.000;0.000;2023-03-31T16:52:32;11.90;92.10
70762;DHT22;58360;0.000;0.000;2023-03-31T16:54:57;11.90;92.30
70762;DHT22;58360;0.000;0.000;2023-03-31T16:57:23;11.90;92.20
70762;DHT22;58360;0.000;0.000;2023-03-31T16:59:49;12.00;91.70
70762;DHT22;58360;0.000;0.000;2023-03-31T17:02:14;12.00;91.40
70762;DHT22;58360;0.000;0.000;2023-03-31T17:04:40;11.90;91.40
70762;DHT22;58360;0.000;0.000;2023-03-31T17:07:06;11.90;91.50
70762;DHT22;58360;0.000;0.000;2023-03-31T17:09:31;11.90;91.40
70762;DHT22;58360;0.000;0.000;2023-03-31T17:11:57;11.90;91.80
70762;DHT22;58360;0.000;0.000;2023-03-31T17:14:23;11.90;92.10
70762;DHT22;58360;0.000;0.000;2023-03-31T17:16:49;11.90;92.10
70762;DHT22;58360;0.000;0.000;2023-03-31T17:19:15;11.80;92.40
70762;DHT22;58360;0.000;0.000;2023-03-31T17:21:41;11.80;92.70
70762;DHT22;58360;0.000;0.000;2023-03-31T17:24:08;11.80;92.80
70762;DHT22;58360;0.000;0.000;2023-03-31T17:26:34;12.00;92.50
70762;DHT22;58360;0.000;0.000;2023-03-31T17:29:01;11.90;92.30
70762;DHT22;58360;0.000;0.000;2023-03-31T17:31:27;11.70;92.90
70762;DHT22;58360;0.000;0.000;2023-03-31T17:33:52;11.60;93.20
70762;DHT22;58360;0.000;0.000;2023-03-31T17:36:18;11.60;93.30
70762;DHT22;58360;0.000;0.000;2023-03-31T17:38:44;11.50;93.40
70762;DHT22;58360;0.000;0.000;2023-03-31T17:41:11;11.40;93.50
70762;DHT22;58360;0.000;0.000;2023-03-31T17:43:37;11.40;93.50
70762;DHT22;58360;0.000;0.000;2023-03-31T17:46:05;11.40;93.40
70762;DHT22;58360;0.000;0.000;2023-03-31T17:48:32;11.30;93.70
70762;DHT22;58360;0.000;0.000;2023-03-31T17:51:06;11.30;93.70
70762;DHT22;58360;0.000;0.000;2023-03-31T17:53:33;11.40;93.50
70762;DHT22;58360;0.000;0.000;2023-03-31T17:56:00;11.30;93.70
70762;DHT22;58360;0.000;0.000;2023-03-31T17:58:26;11.30;93.70
70762;DHT22;58360;0.000;0.000;2023-03-31T18:00:52;11.30;93.80
70762;DHT22;58360;0.000;0.000;2023-03-31T18:03:18;11.30;94.00
70762;DHT22;58360;0.000;0.000;2023-03-31T18:05:44;11.40;93.90
70762;DHT22;58360;0.000;0.000;2023-03-31T18:08:10;11.40;93.40
70762;DHT22;58360;0.000;0.000;2023-03-31T18:10:36;11.40;93.70
70762;DHT22;58360;0.000;0.000;2023-03-31T18:13:03;11.40;93.70
70762;DHT22;58360;0.000;0.000;2023-03-31T18:15:29;11.40;93.50
70762;DHT22;58360;0.000;0.000;2023-03-31T18:17:54;11.30;93.70
70762;DHT22;58360;0.000;0.000;2023-03-31T18:20:21;11.30;93.60
70762;DHT22;58360;0.000;0.000;2023-03-31T18:22:47;11.20;93.90
70762;DHT22;58360;0.000;0.000;2023-03-31T18:25:14;11.10;94.00
70762;DHT22;58360;0.000;0.000;2023-03-31T18:27:40;11.20;94.10
70762;DHT22;58360;0.000;0.000;2023-03-31T18:30:07;11.20;94.20
70762;DHT22;58360;0.000;0.000;2023-03-31T18:32:33;11.30;94.20
70762;DHT22;58360;0.000;0.000;2023-03-31T18:34:59;11.20;94.00
70762;DHT22;58360;0.000;0.000;2023-03-31T18:37:24;11.20;94.20
70762;DHT22;58360;0.000;0.000;2023-03-31T18:39:50;11.20;94.20
70762;DHT22;58360;0.000;0.000;2023-03-31T18:42:16;11.20;94.20
70762;DHT22;58360;0.000;0.000;2023-03-31T18:44:44;11.20;94.00
70762;DHT22;58360;0.000;0.000;2023-03-31T18:47:09;11.20;93.80
70762;DHT22;58360;0.000;0.000;2023-03-31T18:49:35;11.20;93.90
70762;DHT22;58360;0.000;0.000;2023-03-31T18:52:00;11.20;94.00
70762;DHT22;58360;0.000;0.000;2023-03-31T18:54:28;11.10;94.20
70762;DHT22;58360;0.000;0.000;2023-03-31T18:56:54;11.20;94.40
70762;DHT22;58360;0.000;0.000;2023-03-31T18:59:20;11.10;94.20
70762;DHT22;58360;0.000;0.000;2023-03-31T19:01:45;11.00;94.70